sensor_id;sensor_type;location;lat;lon;timestamp;pressure;altitude;pressure_sealevel;temperature;humidity
48267;BME280;34088;52.232;5.196;2023-08-07T00:01:30;101357.03;;;13.54;90.72
48267;BME280;34088;52.232;5.196;2023-08-07T00:03:55;101361.13;;;13.61;90.20
48267;BME280;34088;52.232;5.196;2023-08-07T00:06:20;101361.88;;;13.63;89.68
48267;BME280;34088;52.232;5.196;2023-08-07T00:08:45;101355.09;;;13.59;89.72
48267;BME280;34088;52.232;5.196;2023-08-07T00:11:10;101352.16;;;13.68;90.00
48267;BME280;34088;52.232;5.196;2023-08-07T00:13:36;101362.81;;;13.62;89.61
48267;BME280;34088;52.232;5.196;2023-08-07T00:16:02;101368.44;;;13.73;89.36
48267;BME280;34088;52.232;5.196;2023-08-07T00:32:44;101358.78;;;13.54;89.52
48267;BME280;34088;52.232;5.196;2023-08-07T00:35:10;101353.78;;;13.49;90.03
48267;BME280;34088;52.232;5.196;2023-08-07T00:37:35;101351.22;;;13.48;90.37
48267;BME280;34088;52.232;5.196;2023-08-07T00:40:00;101359.81;;;13.50;90.43
48267;BME280;34088;52.232;5.196;2023-08-07T00:42:25;101345.78;;;13.54;90.00
48267;BME280;34088;52.232;5.196;2023-08-07T00:44:51;101349.22;;;13.54;90.01
48267;BME280;34088;52.232;5.196;2023-08-07T00:47:16;101343.88;;;13.59;90.19
48267;BME280;34088;52.232;5.196;2023-08-07T00:49:41;101349.78;;;13.62;89.93
48267;BME280;34088;52.232;5.196;2023-08-07T00:52:07;101348.97;;;13.60;90.54
48267;BME280;34088;52.232;5.196;2023-08-07T00:54:32;101353.34;;;13.60;89.95
48267;BME280;34088;52.232;5.196;2023-08-07T00:57:06;101350.53;;;13.66;90.15
48267;BME280;34088;52.232;5.196;2023-08-07T00:59:34;101346.03;;;13.69;90.10
48267;BME280;34088;52.232;5.196;2023-08-07T01:01:59;101345.13;;;13.70;90.13
48267;BME280;34088;52.232;5.196;2023-08-07T01:04:26;101349.50;;;13.70;90.03
48267;BME280;34088;52.232;5.196;2023-08-07T01:06:51;101345.84;;;13.74;89.49
48267;BME280;34088;52.232;5.196;2023-08-07T01:09:16;101350.03;;;13.78;88.84
48267;BME280;34088;52.232;5.196;2023-08-07T01:11:48;101349.19;;;13.77;88.85
48267;BME280;34088;52.232;5.196;2023-08-07T01:14:36;101350.50;;;13.87;88.11
48267;BME280;34088;52.232;5.196;2023-08-07T01:17:11;101346.03;;;13.91;87.65
48267;BME280;34088;52.232;5.196;2023-08-07T01:19:39;101338.41;;;13.86;87.52
48267;BME280;34088;52.232;5.196;2023-08-07T01:22:09;101349.50;;;13.91;86.58
48267;BME280;34088;52.232;5.196;2023-08-07T01:24:35;101350.94;;;13.98;87.15
48267;BME280;34088;52.232;5.196;2023-08-07T01:27:19;101357.16;;;13.94;86.52
48267;BME280;34088;52.232;5.196;2023-08-07T01:30:33;101363.94;;;13.98;86.63
48267;BME280;34088;52.232;5.196;2023-08-07T01:32:59;101371.72;;;14.00;85.93
48267;BME280;34088;52.232;5.196;2023-08-07T01:35:34;101376.06;;;13.99;86.25
48267;BME280;34088;52.232;5.196;2023-08-07T01:38:00;101376.19;;;13.96;86.18
48267;BME280;34088;52.232;5.196;2023-08-07T01:40:28;101367.28;;;14.02;85.76
48267;BME280;34088;52.232;5.196;2023-08-07T01:42:53;101364.63;;;14.03;86.07
48267;BME280;34088;52.232;5.196;2023-08-07T01:45:22;101367.22;;;14.03;86.27
48267;BME280;34088;52.232;5.196;2023-08-07T01:47:48;101367.31;;;14.00;86.03
48267;BME280;34088;52.232;5.196;2023-08-07T01:50:13;101368.91;;;14.04;86.31
48267;BME280;34088;52.232;5.196;2023-08-07T01:52:38;101375.13;;;14.00;85.99
48267;BME280;34088;52.232;5.196;2023-08-07T01:55:04;101367.75;;;14.11;86.07
48267;BME280;34088;52.232;5.196;2023-08-07T01:57:29;101373.16;;;14.07;86.42
48267;BME280;34088;52.232;5.196;2023-08-07T01:59:56;101364.66;;;14.02;86.49
48267;BME280;34088;52.232;5.196;2023-08-07T02:02:21;101372.28;;;14.06;86.99
48267;BME280;34088;52.232;5.196;2023-08-07T02:04:46;101368.13;;;14.02;86.91
48267;BME280;34088;52.232;5.196;2023-08-07T02:07:11;101381.88;;;14.06;86.77
48267;BME280;34088;52.232;5.196;2023-08-07T02:09:37;101378.16;;;14.11;86.88
48267;BME280;34088;52.232;5.196;2023-08-07T02:12:02;101375.56;;;14.11;86.72
48267;BME280;34088;52.232;5.196;2023-08-07T02:14:28;101382.66;;;14.08;86.66
48267;BME280;34088;52.232;5.196;2023-08-07T02:16:53;101371.78;;;14.18;86.52
48267;BME280;34088;52.232;5.196;2023-08-07T02:19:18;101380.44;;;14.20;85.77
48267;BME280;34088;52.232;5.196;2023-08-07T02:21:44;101372.69;;;14.19;85.96
48267;BME280;34088;52.232;5.196;2023-08-07T02:24:09;101378.59;;;14.22;85.71
48267;BME280;34088;52.232;5.196;2023-08-07T02:26:34;101377.13;;;14.15;85.98
48267;BME280;34088;52.232;5.196;2023-08-07T02:28:59;101385.72;;;14.17;86.44
48267;BME280;34088;52.232;5.196;2023-08-07T02:31:24;101388.31;;;14.17;86.23
48267;BME280;34088;52.232;5.196;2023-08-07T02:33:50;101392.63;;;14.18;86.87
48267;BME280;34088;52.232;5.196;2023-08-07T02:36:15;101395.81;;;14.05;87.46
48267;BME280;34088;52.232;5.196;2023-08-07T02:38:40;101391.81;;;13.96;88.33
48267;BME280;34088;52.232;5.196;2023-08-07T02:41:05;101397.03;;;13.96;88.24
48267;BME280;34088;52.232;5.196;2023-08-07T02:43:31;101394.53;;;13.93;88.62
48267;BME280;34088;52.232;5.196;2023-08-07T02:45:58;101398.38;;;13.83;88.71
48267;BME280;34088;52.232;5.196;2023-08-07T02:48:23;101394.94;;;13.83;88.85
48267;BME280;34088;52.232;5.196;2023-08-07T02:50:49;101401.22;;;13.77;89.97
48267;BME280;34088;52.232;5.196;2023-08-07T02:53:16;101396.81;;;13.79;89.40
48267;BME280;34088;52.232;5.196;2023-08-07T02:55:42;101401.13;;;13.80;89.65
48267;BME280;34088;52.232;5.196;2023-08-07T02:58:08;101388.09;;;13.80;90.12
48267;BME280;34088;52.232;5.196;2023-08-07T03:00:34;101388.16;;;13.79;90.24
48267;BME280;34088;52.232;5.196;2023-08-07T03:02:59;101388.41;;;13.73;90.33
48267;BME280;34088;52.232;5.196;2023-08-07T03:05:25;101382.41;;;13.71;89.64
48267;BME280;34088;52.232;5.196;2023-08-07T03:07:50;101391.84;;;13.73;89.58
48267;BME280;34088;52.232;5.196;2023-08-07T03:10:15;101386.66;;;13.73;89.45
48267;BME280;34088;52.232;5.196;2023-08-07T03:12:40;101388.00;;;13.60;89.22
48267;BME280;34088;52.232;5.196;2023-08-07T03:15:06;101387.94;;;13.62;90.00
48267;BME280;34088;52.232;5.196;2023-08-07T03:17:32;101381.59;;;13.69;89.93
48267;BME280;34088;52.232;5.196;2023-08-07T03:19:57;101385.50;;;13.59;90.08
48267;BME280;34088;52.232;5.196;2023-08-07T03:22:22;101381.00;;;13.62;89.53
48267;BME280;34088;52.232;5.196;2023-08-07T03:24:47;101385.25;;;13.65;89.60
48267;BME280;34088;52.232;5.196;2023-08-07T03:27:13;101372.97;;;13.68;89.97
48267;BME280;34088;52.232;5.196;2023-08-07T03:29:38;101380.81;;;13.67;89.96
48267;BME280;34088;52.232;5.196;2023-08-07T03:32:04;101369.56;;;13.66;90.12
48267;BME280;34088;52.232;5.196;2023-08-07T03:34:29;101378.19;;;13.68;89.42
48267;BME280;34088;52.232;5.196;2023-08-07T03:36:54;101385.13;;;13.68;89.83
48267;BME280;34088;52.232;5.196;2023-08-07T03:39:20;101388.41;;;13.73;89.82
48267;BME280;34088;52.232;5.196;2023-08-07T03:41:45;101381.44;;;13.73;90.22
48267;BME280;34088;52.232;5.196;2023-08-07T03:44:10;101381.50;;;13.72;89.87
48267;BME280;34088;52.232;5.196;2023-08-07T03:46:36;101382.03;;;13.80;89.76
48267;BME280;34088;52.232;5.196;2023-08-07T03:49:01;101379.19;;;13.86;89.78
48267;BME280;34088;52.232;5.196;2023-08-07T03:51:26;101384.41;;;13.86;89.46
48267;BME280;34088;52.232;5.196;2023-08-07T03:53:51;101388.63;;;13.88;89.33
48267;BME280;34088;52.232;5.196;2023-08-07T03:56:16;101379.09;;;13.89;89.63
48267;BME280;34088;52.232;5.196;2023-08-07T03:58:42;101389.59;;;13.86;90.04
48267;BME280;34088;52.232;5.196;2023-08-07T04:01:07;101386.84;;;13.90;89.61
48267;BME280;34088;52.232;5.196;2023-08-07T04:03:33;101378.94;;;13.92;89.59
48267;BME280;34088;52.232;5.196;2023-08-07T04:05:58;101385.69;;;13.97;89.00
48267;BME280;34088;52.232;5.196;2023-08-07T04:08:25;101383.91;;;13.98;89.49
48267;BME280;34088;52.232;5.196;2023-08-07T04:11:00;101388.34;;;13.96;89.07
48267;BME280;34088;52.232;5.196;2023-08-07T04:13:26;101389.13;;;13.98;88.64
48267;BME280;34088;52.232;5.196;2023-08-07T04:15:52;101394.28;;;13.99;88.73
48267;BME280;34088;52.232;5.196;2023-08-07T04:18:17;101396.78;;;14.02;88.37
48267;BME280;34088;52.232;5.196;2023-08-07T04:20:42;101386.34;;;14.02;88.53
48267;BME280;34088;52.232;5.196;2023-08-07T04:23:13;101392.44;;;14.01;88.82
48267;BME280;34088;52.232;5.196;2023-08-07T04:25:38;101388.16;;;14.00;88.63
48267;BME280;34088;52.232;5.196;2023-08-07T04:28:03;101397.50;;;14.06;88.66
48267;BME280;34088;52.232;5.196;2023-08-07T04:30:28;101399.28;;;14.04;88.54
48267;BME280;34088;52.232;5.196;2023-08-07T04:32:54;101392.28;;;14.06;88.77
48267;BME280;34088;52.232;5.196;2023-08-07T04:35:20;101396.53;;;14.08;88.16
48267;BME280;34088;52.232;5.196;2023-08-07T04:37:45;101410.31;;;14.10;87.70
48267;BME280;34088;52.232;5.196;2023-08-07T04:40:11;101405.88;;;14.12;87.65
48267;BME280;34088;52.232;5.196;2023-08-07T04:42:36;101409.41;;;14.11;88.22
48267;BME280;34088;52.232;5.196;2023-08-07T04:45:01;101414.50;;;14.14;88.55
48267;BME280;34088;52.232;5.196;2023-08-07T04:47:27;101415.22;;;14.19;88.17
48267;BME280;34088;52.232;5.196;2023-08-07T04:49:52;101420.03;;;14.28;87.57
48267;BME280;34088;52.232;5.196;2023-08-07T04:52:18;101408.53;;;14.34;87.55
48267;BME280;34088;52.232;5.196;2023-08-07T04:54:43;101414.97;;;14.25;88.19
48267;BME280;34088;52.232;5.196;2023-08-07T04:57:09;101425.13;;;14.31;88.02
48267;BME280;34088;52.232;5.196;2023-08-07T04:59:34;101441.84;;;14.26;88.52
48267;BME280;34088;52.232;5.196;2023-08-07T05:02:00;101440.34;;;14.20;89.09
48267;BME280;34088;52.232;5.196;2023-08-07T05:04:26;101442.94;;;14.20;89.50
48267;BME280;34088;52.232;5.196;2023-08-07T05:06:51;101444.84;;;14.15;89.46
48267;BME280;34088;52.232;5.196;2023-08-07T05:09:16;101447.88;;;14.05;90.27
48267;BME280;34088;52.232;5.196;2023-08-07T05:11:42;101440.34;;;13.97;90.58
48267;BME280;34088;52.232;5.196;2023-08-07T05:14:07;101439.41;;;14.00;90.08
48267;BME280;34088;52.232;5.196;2023-08-07T05:16:32;101446.38;;;13.98;89.83
48267;BME280;34088;52.232;5.196;2023-08-07T05:18:57;101450.53;;;14.03;89.33
48267;BME280;34088;52.232;5.196;2023-08-07T05:21:23;101452.47;;;13.98;88.91
48267;BME280;34088;52.232;5.196;2023-08-07T05:23:48;101456.75;;;13.99;88.40
48267;BME280;34088;52.232;5.196;2023-08-07T05:26:13;101455.97;;;13.97;88.52
48267;BME280;34088;52.232;5.196;2023-08-07T05:28:38;101461.38;;;13.93;88.83
48267;BME280;34088;52.232;5.196;2023-08-07T05:31:04;101463.59;;;14.02;88.87
48267;BME280;34088;52.232;5.196;2023-08-07T05:33:29;101461.84;;;14.02;88.42
48267;BME280;34088;52.232;5.196;2023-08-07T05:35:54;101462.00;;;13.98;88.08
48267;BME280;34088;52.232;5.196;2023-08-07T05:38:20;101465.66;;;13.94;88.25
48267;BME280;34088;52.232;5.196;2023-08-07T05:40:45;101462.81;;;14.00;87.96
48267;BME280;34088;52.232;5.196;2023-08-07T05:43:11;101458.41;;;14.02;87.40
48267;BME280;34088;52.232;5.196;2023-08-07T05:45:38;101479.22;;;14.02;88.23
48267;BME280;34088;52.232;5.196;2023-08-07T05:48:03;101475.59;;;14.06;88.73
48267;BME280;34088;52.232;5.196;2023-08-07T05:50:28;101471.78;;;14.14;88.08
48267;BME280;34088;52.232;5.196;2023-08-07T05:52:53;101476.09;;;14.15;88.48
48267;BME280;34088;52.232;5.196;2023-08-07T05:55:19;101483.00;;;14.16;88.25
48267;BME280;34088;52.232;5.196;2023-08-07T05:57:44;101483.69;;;14.21;88.70
48267;BME280;34088;52.232;5.196;2023-08-07T06:00:09;101481.72;;;14.28;88.16
48267;BME280;34088;52.232;5.196;2023-08-07T06:02:41;101478.00;;;14.33;87.35
48267;BME280;34088;52.232;5.196;2023-08-07T06:05:06;101489.19;;;14.35;87.58
48267;BME280;34088;52.232;5.196;2023-08-07T06:07:32;101482.00;;;14.42;87.17
48267;BME280;34088;52.232;5.196;2023-08-07T06:09:57;101495.50;;;14.51;86.54
48267;BME280;34088;52.232;5.196;2023-08-07T06:12:22;101493.66;;;14.53;85.57
48267;BME280;34088;52.232;5.196;2023-08-07T06:14:47;101501.06;;;14.64;86.02
48267;BME280;34088;52.232;5.196;2023-08-07T06:17:13;101499.97;;;14.69;84.67
48267;BME280;34088;52.232;5.196;2023-08-07T06:19:38;101495.63;;;14.70;84.80
48267;BME280;34088;52.232;5.196;2023-08-07T06:22:04;101497.72;;;14.82;84.96
48267;BME280;34088;52.232;5.196;2023-08-07T06:24:29;101506.63;;;14.76;84.37
48267;BME280;34088;52.232;5.196;2023-08-07T06:26:54;101506.88;;;14.70;84.19
48267;BME280;34088;52.232;5.196;2023-08-07T06:29:19;101509.84;;;14.83;84.81
48267;BME280;34088;52.232;5.196;2023-08-07T06:31:45;101514.28;;;14.81;84.66
48267;BME280;34088;52.232;5.196;2023-08-07T06:34:10;101514.06;;;14.85;84.76
48267;BME280;34088;52.232;5.196;2023-08-07T06:36:35;101525.41;;;14.84;85.14
48267;BME280;34088;52.232;5.196;2023-08-07T06:39:00;101523.63;;;14.85;84.26
48267;BME280;34088;52.232;5.196;2023-08-07T06:41:26;101522.34;;;14.75;84.03
48267;BME280;34088;52.232;5.196;2023-08-07T06:43:51;101528.81;;;14.65;83.32
48267;BME280;34088;52.232;5.196;2023-08-07T06:46:16;101537.41;;;14.67;83.06
48267;BME280;34088;52.232;5.196;2023-08-07T06:48:42;101536.69;;;14.63;83.51
48267;BME280;34088;52.232;5.196;2023-08-07T06:51:07;101537.13;;;14.53;84.49
48267;BME280;34088;52.232;5.196;2023-08-07T06:53:32;101541.28;;;14.35;85.22
48267;BME280;34088;52.232;5.196;2023-08-07T06:55:57;101546.22;;;14.43;85.29
48267;BME280;34088;52.232;5.196;2023-08-07T06:58:23;101537.38;;;14.47;85.45
48267;BME280;34088;52.232;5.196;2023-08-07T07:00:48;101540.47;;;14.56;85.45
48267;BME280;34088;52.232;5.196;2023-08-07T07:03:14;101540.72;;;14.50;85.52
48267;BME280;34088;52.232;5.196;2023-08-07T07:05:39;101543.06;;;14.56;85.52
48267;BME280;34088;52.232;5.196;2023-08-07T07:08:06;101542.22;;;14.77;85.52
48267;BME280;34088;52.232;5.196;2023-08-07T07:10:31;101549.78;;;14.83;85.31
48267;BME280;34088;52.232;5.196;2023-08-07T07:12:57;101543.16;;;14.96;85.21
48267;BME280;34088;52.232;5.196;2023-08-07T07:15:22;101545.06;;;15.13;85.01
48267;BME280;34088;52.232;5.196;2023-08-07T07:17:48;101561.31;;;15.19;83.56
48267;BME280;34088;52.232;5.196;2023-08-07T07:20:13;101560.41;;;15.20;84.69
48267;BME280;34088;52.232;5.196;2023-08-07T07:22:38;101564.84;;;15.18;83.79
48267;BME280;34088;52.232;5.196;2023-08-07T07:25:03;101572.41;;;15.24;83.65
48267;BME280;34088;52.232;5.196;2023-08-07T07:27:29;101568.34;;;15.17;83.31
48267;BME280;34088;52.232;5.196;2023-08-07T07:29:54;101570.41;;;15.29;84.07
48267;BME280;34088;52.232;5.196;2023-08-07T07:32:19;101570.41;;;15.29;82.22
48267;BME280;34088;52.232;5.196;2023-08-07T07:34:45;101568.03;;;15.25;83.46
48267;BME280;34088;52.232;5.196;2023-08-07T07:37:10;101566.69;;;15.15;83.49
48267;BME280;34088;52.232;5.196;2023-08-07T07:39:35;101573.34;;;15.02;83.56
48267;BME280;34088;52.232;5.196;2023-08-07T07:42:00;101575.94;;;15.02;84.23
48267;BME280;34088;52.232;5.196;2023-08-07T07:44:26;101579.47;;;15.01;83.85
48267;BME280;34088;52.232;5.196;2023-08-07T07:46:51;101592.97;;;15.10;83.91
48267;BME280;34088;52.232;5.196;2023-08-07T07:49:16;101583.66;;;15.05;83.41
48267;BME280;34088;52.232;5.196;2023-08-07T07:51:42;101592.19;;;15.08;83.40
48267;BME280;34088;52.232;5.196;2023-08-07T07:54:09;101601.78;;;15.08;82.83
48267;BME280;34088;52.232;5.196;2023-08-07T07:56:34;101606.66;;;14.95;82.29
48267;BME280;34088;52.232;5.196;2023-08-07T07:58:59;101608.44;;;14.93;81.83
48267;BME280;34088;52.232;5.196;2023-08-07T08:01:25;101611.78;;;14.97;82.49
48267;BME280;34088;52.232;5.196;2023-08-07T08:03:50;101615.97;;;15.01;81.42
48267;BME280;34088;52.232;5.196;2023-08-07T08:06:15;101619.97;;;15.09;81.68
48267;BME280;34088;52.232;5.196;2023-08-07T08:08:40;101616.44;;;15.10;81.10
48267;BME280;34088;52.232;5.196;2023-08-07T08:11:07;101626.38;;;15.22;80.57
48267;BME280;34088;52.232;5.196;2023-08-07T08:13:32;101620.44;;;15.40;80.83
48267;BME280;34088;52.232;5.196;2023-08-07T08:15:58;101623.75;;;15.44;79.74
48267;BME280;34088;52.232;5.196;2023-08-07T08:18:24;101625.13;;;15.52;79.07
48267;BME280;34088;52.232;5.196;2023-08-07T08:20:49;101630.91;;;15.60;78.92
48267;BME280;34088;52.232;5.196;2023-08-07T08:23:14;101619.00;;;15.73;78.03
48267;BME280;34088;52.232;5.196;2023-08-07T08:25:39;101629.19;;;15.79;77.93
48267;BME280;34088;52.232;5.196;2023-08-07T08:28:04;101632.97;;;15.72;77.78
48267;BME280;34088;52.232;5.196;2023-08-07T08:30:30;101639.75;;;15.56;75.35
48267;BME280;34088;52.232;5.196;2023-08-07T08:32:55;101643.84;;;15.42;75.98
48267;BME280;34088;52.232;5.196;2023-08-07T08:35:21;101649.19;;;15.17;77.32
48267;BME280;34088;52.232;5.196;2023-08-07T08:37:46;101660.25;;;15.24;77.99
48267;BME280;34088;52.232;5.196;2023-08-07T08:40:11;101647.75;;;15.10;78.01
48267;BME280;34088;52.232;5.196;2023-08-07T08:42:43;101658.44;;;15.04;78.39
48267;BME280;34088;52.232;5.196;2023-08-07T08:45:09;101654.53;;;15.14;78.96
48267;BME280;34088;52.232;5.196;2023-08-07T08:47:36;101652.84;;;15.13;78.16
48267;BME280;34088;52.232;5.196;2023-08-07T08:50:03;101655.56;;;15.10;78.14
48267;BME280;34088;52.232;5.196;2023-08-07T08:52:30;101655.78;;;15.26;78.20
48267;BME280;34088;52.232;5.196;2023-08-07T08:54:56;101649.56;;;15.30;78.08
48267;BME280;34088;52.232;5.196;2023-08-07T08:57:22;101653.31;;;15.44;78.46
48267;BME280;34088;52.232;5.196;2023-08-07T08:59:47;101659.28;;;15.68;77.05
48267;BME280;34088;52.232;5.196;2023-08-07T09:02:13;101658.16;;;15.73;77.81
48267;BME280;34088;52.232;5.196;2023-08-07T09:04:38;101652.53;;;16.02;76.59
48267;BME280;34088;52.232;5.196;2023-08-07T09:07:03;101662.50;;;16.13;73.33
48267;BME280;34088;52.232;5.196;2023-08-07T09:09:29;101658.09;;;16.33;75.05
48267;BME280;34088;52.232;5.196;2023-08-07T09:11:54;101656.88;;;16.60;74.08
48267;BME280;34088;52.232;5.196;2023-08-07T09:14:22;101665.06;;;16.53;71.85
48267;BME280;34088;52.232;5.196;2023-08-07T09:16:49;101664.63;;;16.43;72.28
48267;BME280;34088;52.232;5.196;2023-08-07T09:19:14;101672.22;;;16.29;72.56
48267;BME280;34088;52.232;5.196;2023-08-07T09:21:40;101674.31;;;16.21;73.43
48267;BME280;34088;52.232;5.196;2023-08-07T09:24:05;101675.22;;;16.20;73.50
48267;BME280;34088;52.232;5.196;2023-08-07T09:26:31;101690.41;;;16.12;73.33
48267;BME280;34088;52.232;5.196;2023-08-07T09:28:57;101684.09;;;16.16;73.50
48267;BME280;34088;52.232;5.196;2023-08-07T09:31:23;101690.41;;;16.12;72.88
48267;BME280;34088;52.232;5.196;2023-08-07T09:33:51;101691.66;;;16.04;73.64
48267;BME280;34088;52.232;5.196;2023-08-07T09:36:17;101691.06;;;15.97;74.09
48267;BME280;34088;52.232;5.196;2023-08-07T09:38:43;101696.41;;;16.14;73.81
48267;BME280;34088;52.232;5.196;2023-08-07T09:41:08;101693.28;;;16.06;72.97
48267;BME280;34088;52.232;5.196;2023-08-07T09:43:34;101704.84;;;15.81;74.29
48267;BME280;34088;52.232;5.196;2023-08-07T09:46:03;101707.13;;;15.68;76.26
48267;BME280;34088;52.232;5.196;2023-08-07T09:48:29;101704.38;;;15.71;76.29
48267;BME280;34088;52.232;5.196;2023-08-07T09:50:54;101711.31;;;15.72;77.29
48267;BME280;34088;52.232;5.196;2023-08-07T09:53:26;101707.16;;;15.67;77.43
48267;BME280;34088;52.232;5.196;2023-08-07T09:55:52;101708.88;;;15.68;77.41
48267;BME280;34088;52.232;5.196;2023-08-07T09:58:18;101718.34;;;15.90;78.44
48267;BME280;34088;52.232;5.196;2023-08-07T10:00:43;101709.00;;;16.25;78.24
48267;BME280;34088;52.232;5.196;2023-08-07T10:03:11;101710.88;;;16.21;76.15
48267;BME280;34088;52.232;5.196;2023-08-07T10:05:36;101715.34;;;16.39;75.84
48267;BME280;34088;52.232;5.196;2023-08-07T10:08:01;101714.53;;;16.37;73.50
48267;BME280;34088;52.232;5.196;2023-08-07T10:10:27;101713.38;;;16.24;73.33
48267;BME280;34088;52.232;5.196;2023-08-07T10:12:53;101712.66;;;16.21;73.84
48267;BME280;34088;52.232;5.196;2023-08-07T10:15:19;101706.84;;;16.34;74.18
48267;BME280;34088;52.232;5.196;2023-08-07T10:17:44;101706.81;;;16.91;73.96
48267;BME280;34088;52.232;5.196;2023-08-07T10:20:10;101711.97;;;16.93;72.37
48267;BME280;34088;52.232;5.196;2023-08-07T10:22:37;101711.81;;;16.59;72.44
48267;BME280;34088;52.232;5.196;2023-08-07T10:25:03;101715.53;;;16.55;72.04
48267;BME280;34088;52.232;5.196;2023-08-07T10:27:32;101712.13;;;16.33;72.53
48267;BME280;34088;52.232;5.196;2023-08-07T10:29:58;101717.91;;;16.59;72.14
48267;BME280;34088;52.232;5.196;2023-08-07T10:32:25;101711.00;;;16.58;71.60
48267;BME280;34088;52.232;5.196;2023-08-07T10:34:50;101713.59;;;16.77;70.67
48267;BME280;34088;52.232;5.196;2023-08-07T10:40:03;101718.44;;;16.86;70.74
48267;BME280;34088;52.232;5.196;2023-08-07T10:42:32;101719.53;;;16.80;71.98
48267;BME280;34088;52.232;5.196;2023-08-07T10:45:00;101729.38;;;16.75;70.55
48267;BME280;34088;52.232;5.196;2023-08-07T10:47:32;101733.31;;;17.02;70.61
48267;BME280;34088;52.232;5.196;2023-08-07T10:49:57;101735.81;;;17.05;68.96
48267;BME280;34088;52.232;5.196;2023-08-07T10:52:24;101744.44;;;17.07;69.66
48267;BME280;34088;52.232;5.196;2023-08-07T10:54:50;101748.31;;;16.62;69.54
48267;BME280;34088;52.232;5.196;2023-08-07T10:57:16;101749.28;;;16.78;70.35
48267;BME280;34088;52.232;5.196;2023-08-07T10:59:55;101744.81;;;16.81;69.90
48267;BME280;34088;52.232;5.196;2023-08-07T11:02:26;101757.94;;;16.98;68.95
48267;BME280;34088;52.232;5.196;2023-08-07T11:04:52;101735.97;;;16.84;69.44
48267;BME280;34088;52.232;5.196;2023-08-07T11:07:27;101744.47;;;17.24;68.90
48267;BME280;34088;52.232;5.196;2023-08-07T11:09:53;101747.44;;;17.35;67.92
48267;BME280;34088;52.232;5.196;2023-08-07T11:12:18;101739.72;;;17.51;68.19
48267;BME280;34088;52.232;5.196;2023-08-07T11:14:43;101738.50;;;17.58;67.99
48267;BME280;34088;52.232;5.196;2023-08-07T11:17:09;101742.81;;;17.76;68.29
48267;BME280;34088;52.232;5.196;2023-08-07T11:19:34;101743.78;;;17.56;69.83
48267;BME280;34088;52.232;5.196;2023-08-07T11:22:00;101740.44;;;17.71;69.17
48267;BME280;34088;52.232;5.196;2023-08-07T11:24:26;101734.91;;;17.77;68.67
48267;BME280;34088;52.232;5.196;2023-08-07T11:26:52;101741.75;;;17.97;67.17
48267;BME280;34088;52.232;5.196;2023-08-07T11:29:17;101736.38;;;17.66;66.96
48267;BME280;34088;52.232;5.196;2023-08-07T11:31:43;101744.88;;;17.52;67.29
48267;BME280;34088;52.232;5.196;2023-08-07T11:34:08;101744.44;;;17.78;66.00
48267;BME280;34088;52.232;5.196;2023-08-07T11:36:41;101739.44;;;17.91;65.07
48267;BME280;34088;52.232;5.196;2023-08-07T11:39:06;101745.69;;;18.05;63.79
48267;BME280;34088;52.232;5.196;2023-08-07T11:41:31;101737.19;;;18.00;61.85
48267;BME280;34088;52.232;5.196;2023-08-07T11:43:56;101733.19;;;17.76;61.34
48267;BME280;34088;52.232;5.196;2023-08-07T11:46:22;101731.13;;;17.66;62.26
48267;BME280;34088;52.232;5.196;2023-08-07T11:48:47;101744.97;;;17.68;59.97
48267;BME280;34088;52.232;5.196;2023-08-07T11:51:12;101743.81;;;18.07;59.00
48267;BME280;34088;52.232;5.196;2023-08-07T11:53:39;101748.13;;;18.25;57.99
48267;BME280;34088;52.232;5.196;2023-08-07T11:56:05;101744.84;;;18.54;56.58
48267;BME280;34088;52.232;5.196;2023-08-07T11:58:37;101737.25;;;18.65;58.91
48267;BME280;34088;52.232;5.196;2023-08-07T12:01:03;101741.03;;;18.27;54.82
48267;BME280;34088;52.232;5.196;2023-08-07T12:03:30;101744.38;;;17.97;56.30
48267;BME280;34088;52.232;5.196;2023-08-07T12:05:56;101747.69;;;18.17;56.79
48267;BME280;34088;52.232;5.196;2023-08-07T12:08:21;101757.09;;;18.38;53.07
48267;BME280;34088;52.232;5.196;2023-08-07T12:10:55;101751.63;;;18.58;54.69
48267;BME280;34088;52.232;5.196;2023-08-07T12:13:23;101741.34;;;18.71;53.72
48267;BME280;34088;52.232;5.196;2023-08-07T12:15:56;101744.75;;;18.88;54.52
48267;BME280;34088;52.232;5.196;2023-08-07T12:18:22;101740.59;;;18.84;54.66
48267;BME280;34088;52.232;5.196;2023-08-07T12:20:51;101741.97;;;18.76;55.69
48267;BME280;34088;52.232;5.196;2023-08-07T12:23:17;101743.44;;;18.64;55.06
48267;BME280;34088;52.232;5.196;2023-08-07T12:25:42;101735.72;;;18.94;56.58
48267;BME280;34088;52.232;5.196;2023-08-07T12:28:07;101743.31;;;18.67;54.34
48267;BME280;34088;52.232;5.196;2023-08-07T12:30:36;101742.09;;;18.57;52.37
48267;BME280;34088;52.232;5.196;2023-08-07T12:33:01;101749.63;;;18.63;53.30
48267;BME280;34088;52.232;5.196;2023-08-07T12:35:29;101740.16;;;18.61;54.78
48267;BME280;34088;52.232;5.196;2023-08-07T12:37:54;101742.44;;;18.67;54.83
48267;BME280;34088;52.232;5.196;2023-08-07T12:40:19;101747.75;;;18.65;53.13
48267;BME280;34088;52.232;5.196;2023-08-07T12:42:46;101750.22;;;18.68;53.44
48267;BME280;34088;52.232;5.196;2023-08-07T12:45:11;101755.22;;;18.40;55.26
48267;BME280;34088;52.232;5.196;2023-08-07T12:47:36;101737.94;;;18.19;54.63
48267;BME280;34088;52.232;5.196;2023-08-07T12:50:01;101747.81;;;18.14;55.89
48267;BME280;34088;52.232;5.196;2023-08-07T12:52:28;101741.72;;;18.48;55.69
48267;BME280;34088;52.232;5.196;2023-08-07T12:54:53;101754.66;;;18.51;55.52
48267;BME280;34088;52.232;5.196;2023-08-07T12:57:18;101751.00;;;18.38;55.23
48267;BME280;34088;52.232;5.196;2023-08-07T12:59:43;101750.72;;;18.59;56.50
48267;BME280;34088;52.232;5.196;2023-08-07T13:02:09;101756.34;;;18.52;56.79